createdAt,value
2018-08-16T00:08:47.277Z,23.5
2018-08-16T00:25:37.915Z,23.5
2018-08-16T00:42:28.791Z,23.2
2018-08-16T00:59:19.418Z,23.2
2018-08-16T01:16:09.944Z,23.2
2018-08-16T01:33:00.594Z,23.2
2018-08-16T01:49:51.185Z,23.2
2018-08-16T02:06:41.660Z,23.2
2018-08-16T02:23:32.067Z,23.2
2018-08-16T02:40:22.447Z,23.2
2018-08-16T02:57:12.872Z,22.9
2018-08-16T03:14:03.237Z,22.9
2018-08-16T03:30:54.081Z,22.9
2018-08-16T03:47:44.177Z,22.9
2018-08-16T04:04:34.471Z,22.9
2018-08-16T04:21:24.767Z,22.9
2018-08-16T04:38:14.947Z,22.9
2018-08-16T04:55:05.229Z,22.9
2018-08-16T05:11:55.381Z,22.9
2018-08-16T05:28:45.600Z,23.2
2018-08-16T05:45:36.020Z,23.2
2018-08-16T06:02:27.290Z,23.5
2018-08-16T06:19:18.338Z,23.8
2018-08-16T06:36:09.681Z,24.2
2018-08-16T06:53:01.276Z,23.8
2018-08-16T07:09:52.796Z,24.2
2018-08-16T07:26:44.400Z,24.2
2018-08-16T07:43:36.026Z,24.2
2018-08-16T08:00:27.974Z,24.2
2018-08-16T08:17:19.330Z,24.2
2018-08-16T08:34:11.558Z,24.5
2018-08-16T08:51:03.294Z,24.5
2018-08-16T09:07:55.605Z,24.8
2018-08-16T09:24:48.018Z,24.5
2018-08-16T09:41:40.379Z,24.8
2018-08-16T09:58:33.265Z,25.1
2018-08-16T10:15:25.764Z,25.1
2018-08-16T10:32:18.419Z,25.1
2018-08-16T10:49:11.136Z,25.1
2018-08-16T11:06:04.175Z,25.4
2018-08-16T11:22:57.408Z,25.8
2018-08-16T11:39:51.850Z,25.8
2018-08-16T11:56:44.742Z,25.8
2018-08-16T12:13:38.397Z,26.1
2018-08-16T12:30:32.305Z,26.1
2018-08-16T12:47:26.415Z,26.1
2018-08-16T13:04:20.545Z,26.4
2018-08-16T13:21:14.728Z,26.4
2018-08-16T13:38:09.109Z,26.4
2018-08-16T13:55:03.465Z,26.4
2018-08-16T14:11:57.740Z,26.4
2018-08-16T14:28:52.061Z,26.4
2018-08-16T14:45:46.351Z,26.4
2018-08-16T15:02:40.601Z,26.4
2018-08-16T15:19:34.756Z,26.4
2018-08-16T15:36:28.796Z,26.1
2018-08-16T15:53:23.151Z,26.1
2018-08-16T16:10:17.075Z,26.1
2018-08-16T16:27:11.255Z,26.4
2018-08-16T16:44:05.374Z,26.1
2018-08-16T17:01:00.041Z,26.1
2018-08-16T17:17:53.531Z,26.1
2018-08-16T17:34:47.344Z,25.8
2018-08-16T17:51:41.159Z,25.8
2018-08-16T18:08:34.967Z,25.8
2018-08-16T18:25:28.883Z,25.4
2018-08-16T18:42:22.499Z,25.4
2018-08-16T18:59:16.407Z,25.1
2018-08-16T19:16:09.111Z,24.8
2018-08-16T19:33:02.041Z,24.8
2018-08-16T19:49:54.707Z,24.5
2018-08-16T20:06:47.767Z,24.5
2018-08-16T20:23:40.149Z,24.5
2018-08-16T20:40:32.808Z,24.5
2018-08-16T20:57:24.602Z,24.2
2018-08-16T21:14:16.103Z,24.2
2018-08-16T21:31:07.266Z,23.8
2018-08-16T21:47:58.521Z,23.8
2018-08-16T22:04:49.765Z,23.8
2018-08-16T22:21:41.138Z,24.2
2018-08-16T22:38:32.698Z,24.2
2018-08-16T22:55:24.325Z,24.2
2018-08-16T23:12:15.913Z,24.2
2018-08-16T23:29:07.476Z,24.2
2018-08-16T23:45:58.816Z,24.2
